createdAt,value
2022-07-25T00:02:05.144Z,30.83
2022-07-25T00:04:34.851Z,30.94
2022-07-25T00:07:03.260Z,30.92
2022-07-25T00:09:30.721Z,31.19
2022-07-25T00:11:57.961Z,31.14
2022-07-25T00:14:25.297Z,30.96
2022-07-25T00:16:52.630Z,30.85
2022-07-25T00:19:20.254Z,30.73
2022-07-25T00:21:47.471Z,31.19
2022-07-25T00:24:15.040Z,30.87
2022-07-25T00:26:49.190Z,31.26
2022-07-25T00:29:16.658Z,30.97
2022-07-25T00:31:43.958Z,30.96
2022-07-25T00:34:11.376Z,30.70
2022-07-25T00:36:38.655Z,31.31
2022-07-25T00:39:06.056Z,30.75
2022-07-25T00:41:33.312Z,31.44
2022-07-25T00:44:00.661Z,31.41
2022-07-25T00:46:27.930Z,30.83
2022-07-25T00:48:55.472Z,31.00
2022-07-25T00:51:22.910Z,31.24
2022-07-25T00:53:50.225Z,31.41
2022-07-25T00:56:17.502Z,31.32
2022-07-25T00:58:45.719Z,31.40
2022-07-25T01:01:13.148Z,31.37
2022-07-25T01:03:40.505Z,31.48
2022-07-25T01:06:08.048Z,31.75
2022-07-25T01:08:35.781Z,32.04
2022-07-25T01:11:03.220Z,31.59
2022-07-25T01:13:32.486Z,31.90
2022-07-25T01:16:00.088Z,31.87
2022-07-25T01:18:27.419Z,31.33
2022-07-25T01:20:54.875Z,31.65
2022-07-25T01:23:22.213Z,31.51
2022-07-25T01:25:49.618Z,31.59
2022-07-25T01:28:16.965Z,31.57
2022-07-25T01:30:44.470Z,31.50
2022-07-25T01:33:21.619Z,31.63
2022-07-25T01:35:49.522Z,31.70
2022-07-25T01:38:17.357Z,31.59
2022-07-25T01:40:45.086Z,31.72
2022-07-25T01:43:12.581Z,31.63
2022-07-25T01:45:39.905Z,31.43
2022-07-25T01:48:07.725Z,31.48
2022-07-25T01:50:35.175Z,31.77
2022-07-25T01:53:02.390Z,31.61
2022-07-25T01:55:29.964Z,31.65
2022-07-25T01:57:59.333Z,31.49
2022-07-25T02:00:27.012Z,31.23
2022-07-25T02:03:14.328Z,31.41
2022-07-25T02:05:42.008Z,31.64
2022-07-25T02:08:09.952Z,31.65
2022-07-25T02:10:38.867Z,31.75
2022-07-25T02:13:06.095Z,31.60
2022-07-25T02:15:33.602Z,31.61
2022-07-25T02:18:00.933Z,31.49
2022-07-25T02:20:28.249Z,31.66
2022-07-25T02:22:55.745Z,31.55
2022-07-25T02:25:23.239Z,31.38
2022-07-25T02:27:50.514Z,31.05
2022-07-25T02:30:17.959Z,31.40
2022-07-25T02:32:45.413Z,31.57
2022-07-25T02:35:13.328Z,31.85
2022-07-25T02:37:40.920Z,31.42
2022-07-25T02:40:08.538Z,31.71
2022-07-25T02:42:35.757Z,31.70
2022-07-25T02:45:03.260Z,31.83
2022-07-25T02:47:30.765Z,31.50
2022-07-25T02:49:58.033Z,31.44
2022-07-25T02:52:25.335Z,31.66
2022-07-25T02:54:52.748Z,31.62
2022-07-25T02:57:20.380Z,31.82
2022-07-25T02:59:47.797Z,31.62
2022-07-25T03:02:15.126Z,31.92
2022-07-25T03:04:42.467Z,32.05
2022-07-25T03:07:09.747Z,31.86
2022-07-25T03:09:37.186Z,32.00
2022-07-25T03:12:04.784Z,31.96
2022-07-25T03:14:32.165Z,32.06
2022-07-25T03:16:59.483Z,32.08
2022-07-25T03:19:26.963Z,31.81
2022-07-25T03:21:54.481Z,31.95
2022-07-25T03:24:21.969Z,32.16
2022-07-25T03:26:49.203Z,32.07
2022-07-25T03:29:16.624Z,32.34
2022-07-25T03:31:43.931Z,32.19
2022-07-25T03:34:11.285Z,32.28
2022-07-25T03:36:38.504Z,32.51
2022-07-25T03:39:06.157Z,32.25
2022-07-25T03:41:33.410Z,31.89
2022-07-25T03:44:00.770Z,31.88
2022-07-25T03:46:28.202Z,31.91
2022-07-25T03:48:56.001Z,31.98
2022-07-25T03:51:25.661Z,31.69
2022-07-25T03:54:02.221Z,31.22
2022-07-25T03:56:30.423Z,30.87
2022-07-25T03:58:57.643Z,30.74
2022-07-25T04:01:26.659Z,31.09
2022-07-25T04:03:54.402Z,30.35
2022-07-25T04:06:23.420Z,30.08
2022-07-25T04:08:51.184Z,30.41
2022-07-25T04:11:18.546Z,30.44
2022-07-25T04:13:45.993Z,30.46
2022-07-25T04:16:17.403Z,30.95
2022-07-25T04:18:50.593Z,30.52
2022-07-25T04:21:19.221Z,30.74
2022-07-25T04:23:46.496Z,31.12
2022-07-25T04:26:13.920Z,30.91
2022-07-25T04:28:41.223Z,31.21
2022-07-25T04:31:08.801Z,31.03
2022-07-25T04:33:39.726Z,31.23
2022-07-25T04:36:07.441Z,30.68
2022-07-25T04:38:35.110Z,30.83
2022-07-25T04:41:03.084Z,31.04
2022-07-25T04:43:30.546Z,30.82
2022-07-25T04:45:57.884Z,30.62
2022-07-25T04:48:25.247Z,30.44
2022-07-25T04:50:52.836Z,30.63
2022-07-25T04:53:20.094Z,30.50
2022-07-25T04:55:47.363Z,30.85
2022-07-25T04:58:14.936Z,30.91
2022-07-25T05:00:42.467Z,30.56
2022-07-25T05:03:09.871Z,30.72
2022-07-25T05:05:37.875Z,30.14
2022-07-25T05:08:05.318Z,30.61
2022-07-25T05:10:32.792Z,30.66
2022-07-25T05:13:00.116Z,30.09
2022-07-25T05:15:27.412Z,30.28
2022-07-25T05:17:54.641Z,30.16
2022-07-25T05:20:22.129Z,30.13
2022-07-25T05:22:49.369Z,30.27
2022-07-25T05:25:16.803Z,30.18
2022-07-25T05:27:44.214Z,30.26
2022-07-25T05:30:12.676Z,29.76
2022-07-25T05:32:40.029Z,29.61
2022-07-25T05:35:08.212Z,29.20
2022-07-25T05:37:36.009Z,29.25
2022-07-25T05:40:04.169Z,29.59
2022-07-25T05:42:31.676Z,29.49
2022-07-25T05:44:59.071Z,29.23
2022-07-25T05:47:26.322Z,28.82
2022-07-25T05:49:53.824Z,28.63
2022-07-25T05:52:21.178Z,29.29
2022-07-25T05:54:48.572Z,28.11
2022-07-25T05:57:15.838Z,28.57
2022-07-25T05:59:43.145Z,28.64
2022-07-25T06:02:10.530Z,28.79
2022-07-25T06:04:38.119Z,28.34
2022-07-25T06:07:05.317Z,28.26
2022-07-25T06:09:33.049Z,29.04
2022-07-25T06:12:01.340Z,29.09
2022-07-25T06:14:29.038Z,28.25
2022-07-25T06:16:57.366Z,28.30
2022-07-25T06:19:24.699Z,29.12
2022-07-25T06:21:52.040Z,27.84
2022-07-25T06:24:19.441Z,28.33
2022-07-25T06:26:46.756Z,28.27
2022-07-25T06:29:14.532Z,28.46
2022-07-25T06:31:41.851Z,28.40
2022-07-25T06:34:13.730Z,28.15
2022-07-25T06:36:40.972Z,28.77
2022-07-25T06:39:08.245Z,28.66
2022-07-25T06:41:37.728Z,28.57
2022-07-25T06:44:05.516Z,28.95
2022-07-25T06:46:33.154Z,28.99
2022-07-25T06:49:00.757Z,28.62
2022-07-25T06:51:28.099Z,28.22
2022-07-25T06:53:56.752Z,28.75
2022-07-25T06:56:24.490Z,28.84
2022-07-25T06:58:53.425Z,29.12
2022-07-25T07:01:20.824Z,28.87
2022-07-25T07:03:48.612Z,28.78
2022-07-25T07:06:15.925Z,28.56
2022-07-25T07:08:43.382Z,28.46
2022-07-25T07:11:10.671Z,28.99
2022-07-25T07:13:37.942Z,29.17
2022-07-25T07:16:05.788Z,29.15
2022-07-25T07:18:33.255Z,29.00
2022-07-25T07:21:00.498Z,28.84
2022-07-25T07:23:29.020Z,29.50
2022-07-25T07:25:56.575Z,29.18
2022-07-25T07:28:24.394Z,28.92
2022-07-25T07:31:15.273Z,29.08
2022-07-25T07:33:39.173Z,29.02
2022-07-25T07:36:06.560Z,28.67
2022-07-25T07:38:34.600Z,28.60
2022-07-25T07:41:02.118Z,28.48
2022-07-25T07:43:31.890Z,29.14
2022-07-25T07:46:01.407Z,29.02
2022-07-25T07:48:29.664Z,28.81
2022-07-25T07:50:57.481Z,29.29
2022-07-25T07:53:44.992Z,28.57
2022-07-25T07:56:12.651Z,28.87
2022-07-25T07:58:40.272Z,28.95
2022-07-25T08:01:08.013Z,28.72
2022-07-25T08:03:36.214Z,29.08
2022-07-25T08:06:04.151Z,28.84
2022-07-25T08:08:31.831Z,28.71
2022-07-25T08:10:59.785Z,28.91
2022-07-25T08:13:29.113Z,28.59
2022-07-25T08:15:59.113Z,28.19
2022-07-25T08:18:27.459Z,27.98
2022-07-25T08:20:54.790Z,28.56
2022-07-25T08:23:22.666Z,28.11
2022-07-25T08:25:50.180Z,28.54
2022-07-25T08:28:17.541Z,28.39
2022-07-25T08:30:45.037Z,28.55
2022-07-25T08:33:16.426Z,28.49
2022-07-25T08:35:48.141Z,28.24
2022-07-25T08:38:15.592Z,28.89
2022-07-25T08:40:42.896Z,28.36
2022-07-25T08:43:14.276Z,28.05
2022-07-25T08:45:45.994Z,29.05
2022-07-25T08:48:13.681Z,28.62
2022-07-25T08:50:40.985Z,28.99
2022-07-25T08:53:32.216Z,28.56
2022-07-25T08:55:55.918Z,27.93
2022-07-25T08:58:23.144Z,28.40
2022-07-25T09:00:50.462Z,28.44
2022-07-25T09:03:31.274Z,29.13
2022-07-25T09:05:58.964Z,29.00
2022-07-25T09:08:26.284Z,28.65
2022-07-25T09:10:53.930Z,28.33
2022-07-25T09:13:22.317Z,28.76
2022-07-25T09:15:53.975Z,28.96
2022-07-25T09:18:25.154Z,28.63
2022-07-25T09:20:55.024Z,28.93
2022-07-25T09:23:28.599Z,29.08
2022-07-25T09:26:03.692Z,29.45
2022-07-25T09:28:31.173Z,28.65
2022-07-25T09:30:59.986Z,28.67
2022-07-25T09:33:28.653Z,28.04
2022-07-25T09:35:56.338Z,29.12
2022-07-25T09:38:24.898Z,28.81
2022-07-25T09:40:59.880Z,28.33
2022-07-25T09:43:37.629Z,28.56
2022-07-25T09:46:05.414Z,28.73
2022-07-25T09:48:33.472Z,28.70
2022-07-25T09:51:01.040Z,28.79
2022-07-25T09:53:29.445Z,28.84
2022-07-25T09:55:57.571Z,28.76
2022-07-25T09:58:25.281Z,28.77
2022-07-25T10:00:55.707Z,28.33
2022-07-25T10:03:25.809Z,28.07
2022-07-25T10:05:56.937Z,28.51
2022-07-25T10:08:24.852Z,28.29
2022-07-25T10:10:52.166Z,28.74
2022-07-25T10:13:29.645Z,28.34
2022-07-25T10:15:57.015Z,28.39
2022-07-25T10:18:25.362Z,28.44
2022-07-25T10:20:54.201Z,29.33
2022-07-25T10:23:24.219Z,29.36
2022-07-25T10:26:07.929Z,29.43
2022-07-25T10:28:42.893Z,30.44
2022-07-25T10:31:16.563Z,29.93
2022-07-25T10:33:47.322Z,29.47
2022-07-25T10:36:14.714Z,29.25
2022-07-25T10:38:44.354Z,29.61
2022-07-25T10:41:12.284Z,30.40
2022-07-25T10:43:40.381Z,29.74
2022-07-25T10:46:13.222Z,29.85
2022-07-25T10:48:41.252Z,30.45
2022-07-25T10:51:10.794Z,29.55
2022-07-25T10:53:48.493Z,29.50
2022-07-25T10:56:17.370Z,30.03
2022-07-25T10:58:49.330Z,29.78
2022-07-25T11:01:24.271Z,29.30
2022-07-25T11:03:52.960Z,30.02
2022-07-25T11:06:37.160Z,29.65
2022-07-25T11:09:17.647Z,30.38
2022-07-25T11:11:50.261Z,29.41
2022-07-25T11:14:24.560Z,29.75
2022-07-25T11:16:53.530Z,29.35
2022-07-25T11:19:22.675Z,29.30
2022-07-25T11:21:51.765Z,29.41
2022-07-25T11:24:19.229Z,29.83
2022-07-25T11:26:47.603Z,29.96
2022-07-25T11:29:21.719Z,30.10
2022-07-25T11:32:08.359Z,29.41
2022-07-25T11:34:37.220Z,30.00
2022-07-25T11:37:06.313Z,29.74
2022-07-25T11:39:35.415Z,29.38
2022-07-25T11:42:13.160Z,29.48
2022-07-25T11:44:47.296Z,29.21
2022-07-25T11:47:28.649Z,29.86
2022-07-25T11:49:56.925Z,29.44
2022-07-25T11:52:27.323Z,29.16
2022-07-25T11:54:56.477Z,29.34
2022-07-25T11:57:27.769Z,29.22
2022-07-25T11:59:55.592Z,29.29
2022-07-25T12:02:26.060Z,29.63
2022-07-25T12:04:57.597Z,29.51
2022-07-25T12:07:54.108Z,29.40
2022-07-25T12:10:34.968Z,29.09
2022-07-25T12:13:04.227Z,28.77
2022-07-25T12:15:37.789Z,28.85
2022-07-25T12:18:06.373Z,28.82
2022-07-25T12:20:35.421Z,28.51
2022-07-25T12:23:07.046Z,28.03
2022-07-25T12:25:35.792Z,28.64
2022-07-25T12:28:03.275Z,28.50
2022-07-25T12:30:31.209Z,28.25
2022-07-25T12:32:58.843Z,28.78
2022-07-25T12:35:26.396Z,29.22
2022-07-25T12:37:54.056Z,28.65
2022-07-25T12:40:21.555Z,28.87
2022-07-25T12:42:49.299Z,28.35
2022-07-25T12:45:17.962Z,29.44
2022-07-25T12:47:45.990Z,29.67
2022-07-25T12:50:15.016Z,29.18
2022-07-25T12:52:43.119Z,29.05
2022-07-25T12:55:12.987Z,29.51
2022-07-25T12:57:40.616Z,28.76
2022-07-25T13:00:10.493Z,27.89
2022-07-25T13:02:38.052Z,27.66
2022-07-25T13:05:05.526Z,28.40
2022-07-25T13:07:33.248Z,28.09
2022-07-25T13:10:01.028Z,27.96
2022-07-25T13:12:28.414Z,27.94
2022-07-25T13:14:55.955Z,27.72
2022-07-25T13:17:27.241Z,29.13
2022-07-25T13:19:55.554Z,27.74
2022-07-25T13:22:22.837Z,27.18
2022-07-25T13:24:50.322Z,29.20
2022-07-25T13:27:21.533Z,27.68
2022-07-25T13:29:54.286Z,27.67
2022-07-25T13:32:24.031Z,27.56
2022-07-25T13:34:51.663Z,26.88
2022-07-25T13:37:19.216Z,28.39
2022-07-25T13:39:46.633Z,29.06
2022-07-25T13:42:13.908Z,28.58
2022-07-25T13:44:41.222Z,27.79
2022-07-25T13:47:08.489Z,27.71
2022-07-25T13:49:37.081Z,27.40
2022-07-25T13:52:04.513Z,27.42
2022-07-25T13:54:31.971Z,26.86
2022-07-25T13:56:59.431Z,27.09
2022-07-25T13:59:27.151Z,26.71
2022-07-25T14:01:54.600Z,27.10
2022-07-25T14:04:21.964Z,26.62
2022-07-25T14:06:52.320Z,26.43
2022-07-25T14:09:20.821Z,26.91
2022-07-25T14:11:48.204Z,27.25
2022-07-25T14:14:15.770Z,28.67
2022-07-25T14:16:43.849Z,28.56
2022-07-25T14:19:11.278Z,27.59
2022-07-25T14:21:38.797Z,28.29
2022-07-25T14:24:12.129Z,27.39
2022-07-25T14:26:39.590Z,26.84
2022-07-25T14:29:11.145Z,26.48
2022-07-25T14:31:39.525Z,27.85
2022-07-25T14:34:07.270Z,27.02
2022-07-25T14:36:34.948Z,26.31
2022-07-25T14:39:03.399Z,26.54
2022-07-25T14:41:30.916Z,27.48
2022-07-25T14:43:58.160Z,26.98
2022-07-25T14:46:26.108Z,28.01
2022-07-25T14:48:54.293Z,27.58
2022-07-25T14:51:21.863Z,27.87
2022-07-25T14:53:53.132Z,27.92
2022-07-25T14:56:20.869Z,27.36
2022-07-25T14:58:48.370Z,26.76
2022-07-25T15:01:18.786Z,27.75
2022-07-25T15:03:46.465Z,27.32
2022-07-25T15:06:13.727Z,27.82
2022-07-25T15:08:41.186Z,28.22
2022-07-25T15:11:08.583Z,27.06
2022-07-25T15:13:36.108Z,27.08
2022-07-25T15:16:03.869Z,26.50
2022-07-25T15:18:31.695Z,26.52
2022-07-25T15:20:58.971Z,28.86
2022-07-25T15:23:30.210Z,29.86
2022-07-25T15:26:02.957Z,28.26
2022-07-25T15:28:33.076Z,26.61
2022-07-25T15:31:01.124Z,26.04
2022-07-25T15:33:28.542Z,26.56
2022-07-25T15:35:55.879Z,26.85
2022-07-25T15:38:23.739Z,26.34
2022-07-25T15:40:51.263Z,27.31
2022-07-25T15:43:18.537Z,27.38
2022-07-25T15:45:46.382Z,28.36
2022-07-25T15:48:14.310Z,28.57
2022-07-25T15:50:43.322Z,29.37
2022-07-25T15:53:11.079Z,28.47
2022-07-25T15:55:39.222Z,28.98
2022-07-25T15:58:09.644Z,29.21
2022-07-25T16:00:38.546Z,29.38
2022-07-25T16:03:06.633Z,27.36
2022-07-25T16:05:34.138Z,26.56
2022-07-25T16:08:01.967Z,26.59
2022-07-25T16:10:30.529Z,25.99
2022-07-25T16:12:57.994Z,26.88
2022-07-25T16:15:25.489Z,25.82
2022-07-25T16:18:00.082Z,25.53
2022-07-25T16:20:31.490Z,25.54
2022-07-25T16:22:59.731Z,26.42
2022-07-25T16:25:27.927Z,27.21
2022-07-25T16:27:56.046Z,27.02
2022-07-25T16:30:23.455Z,27.38
2022-07-25T16:32:50.789Z,27.15
2022-07-25T16:35:18.465Z,27.53
2022-07-25T16:37:45.917Z,28.31
2022-07-25T16:40:14.481Z,28.31
2022-07-25T16:42:42.410Z,26.67
2022-07-25T16:45:09.974Z,26.24
2022-07-25T16:47:37.422Z,26.31
2022-07-25T16:50:04.904Z,25.73
2022-07-25T16:52:32.213Z,26.18
2022-07-25T16:54:59.578Z,25.51
2022-07-25T16:57:26.954Z,25.81
2022-07-25T16:59:54.468Z,25.74
2022-07-25T17:02:27.592Z,25.99
2022-07-25T17:04:57.169Z,25.53
2022-07-25T17:07:24.653Z,25.67
2022-07-25T17:09:52.001Z,25.86
2022-07-25T17:12:19.485Z,25.99
2022-07-25T17:14:47.692Z,25.46
2022-07-25T17:17:14.945Z,25.64
2022-07-25T17:19:42.391Z,25.32
2022-07-25T17:22:09.909Z,25.62
2022-07-25T17:24:37.845Z,25.20
2022-07-25T17:27:05.897Z,26.02
2022-07-25T17:29:33.427Z,26.33
2022-07-25T17:32:00.705Z,25.84
2022-07-25T17:34:28.515Z,25.58
2022-07-25T17:36:55.812Z,25.59
2022-07-25T17:39:23.108Z,26.17
2022-07-25T17:41:52.948Z,25.71
2022-07-25T17:44:20.592Z,25.71
2022-07-25T17:46:50.255Z,25.23
2022-07-25T17:49:17.927Z,26.03
2022-07-25T17:51:45.204Z,26.19
2022-07-25T17:54:12.648Z,26.62
2022-07-25T17:56:40.060Z,26.68
2022-07-25T17:59:08.261Z,26.32
2022-07-25T18:01:35.819Z,26.26
2022-07-25T18:04:03.599Z,26.42
2022-07-25T18:06:31.020Z,25.68
2022-07-25T18:08:58.359Z,26.07
2022-07-25T18:11:25.656Z,25.90
2022-07-25T18:13:53.223Z,25.71
2022-07-25T18:16:20.681Z,25.92
2022-07-25T18:18:48.076Z,26.27
2022-07-25T18:21:15.273Z,26.07
2022-07-25T18:23:42.840Z,26.17
2022-07-25T18:26:10.224Z,26.13
2022-07-25T18:28:37.555Z,26.40
2022-07-25T18:31:05.728Z,26.60
2022-07-25T18:33:33.278Z,26.78
2022-07-25T18:36:05.517Z,26.52
2022-07-25T18:38:35.090Z,26.53
2022-07-25T18:41:26.803Z,27.07
2022-07-25T18:43:50.517Z,27.33
2022-07-25T18:46:18.966Z,27.13
2022-07-25T18:48:46.350Z,27.48
2022-07-25T18:51:13.694Z,27.66
2022-07-25T18:53:44.759Z,27.80
2022-07-25T18:56:15.130Z,28.25
2022-07-25T18:58:42.419Z,27.62
2022-07-25T19:01:10.270Z,27.78
2022-07-25T19:03:37.760Z,27.61
2022-07-25T19:06:06.865Z,27.78
2022-07-25T19:08:34.245Z,27.49
2022-07-25T19:11:01.722Z,27.66
2022-07-25T19:16:16.748Z,27.14
2022-07-25T19:18:44.070Z,27.80
2022-07-25T19:21:11.376Z,27.49
2022-07-25T19:23:38.669Z,27.34
2022-07-25T19:26:06.326Z,27.23
2022-07-25T19:28:34.926Z,27.42
2022-07-25T19:31:02.545Z,27.22
2022-07-25T19:33:34.765Z,26.92
2022-07-25T19:36:04.353Z,27.60
2022-07-25T19:38:31.894Z,27.54
2022-07-25T19:40:59.644Z,27.38
2022-07-25T19:43:27.231Z,27.50
2022-07-25T19:45:54.780Z,26.97
2022-07-25T19:48:24.917Z,27.70
2022-07-25T19:50:52.743Z,27.69
2022-07-25T19:53:22.148Z,27.69
2022-07-25T19:55:52.873Z,28.12
2022-07-25T19:58:20.208Z,27.60
2022-07-25T20:00:47.945Z,27.37
2022-07-25T20:03:15.718Z,27.56
2022-07-25T20:05:43.209Z,26.83
2022-07-25T20:08:10.543Z,26.81
2022-07-25T20:10:38.410Z,27.77
2022-07-25T20:13:05.791Z,28.08
2022-07-25T20:15:33.283Z,27.71
2022-07-25T20:18:00.549Z,27.54
2022-07-25T20:20:27.974Z,27.68
2022-07-25T20:22:55.282Z,27.73
2022-07-25T20:25:22.765Z,27.96
2022-07-25T20:27:50.071Z,27.60
2022-07-25T20:30:18.039Z,27.29
2022-07-25T20:32:45.426Z,27.78
2022-07-25T20:35:12.904Z,27.20
2022-07-25T20:37:40.148Z,27.81
2022-07-25T20:40:09.457Z,27.71
2022-07-25T20:42:36.912Z,28.10
2022-07-25T20:45:05.355Z,27.77
2022-07-25T20:47:32.717Z,27.73
2022-07-25T20:50:00.634Z,28.20
2022-07-25T20:52:28.247Z,28.06
2022-07-25T20:54:55.790Z,28.22
2022-07-25T20:57:23.005Z,28.27
2022-07-25T20:59:51.437Z,28.19
2022-07-25T21:02:18.844Z,28.04
2022-07-25T21:04:48.556Z,27.95
2022-07-25T21:07:16.632Z,28.49
2022-07-25T21:09:43.974Z,28.26
2022-07-25T21:12:11.441Z,28.23
2022-07-25T21:14:38.695Z,28.25
2022-07-25T21:17:06.122Z,28.61
2022-07-25T21:19:33.593Z,28.44
2022-07-25T21:22:01.760Z,28.29
2022-07-25T21:24:29.074Z,28.21
2022-07-25T21:26:56.411Z,28.62
2022-07-25T21:29:23.698Z,28.63
2022-07-25T21:31:51.193Z,28.60
2022-07-25T21:34:21.663Z,28.63
2022-07-25T21:36:48.931Z,28.38
2022-07-25T21:39:16.809Z,28.06
2022-07-25T21:41:44.900Z,28.17
2022-07-25T21:44:14.012Z,28.38
2022-07-25T21:46:41.266Z,28.27
2022-07-25T21:49:41.964Z,28.52
2022-07-25T21:52:14.029Z,28.16
2022-07-25T21:54:42.679Z,28.35
2022-07-25T21:57:13.083Z,28.13
2022-07-25T21:59:42.340Z,28.67
2022-07-25T22:02:09.696Z,28.28
2022-07-25T22:04:37.296Z,28.65
2022-07-25T22:07:04.801Z,28.45
2022-07-25T22:09:32.369Z,28.19
2022-07-25T22:11:59.765Z,28.37
2022-07-25T22:14:27.602Z,28.12
2022-07-25T22:16:55.022Z,28.57
2022-07-25T22:19:22.814Z,28.62
2022-07-25T22:21:50.678Z,28.36
2022-07-25T22:24:18.232Z,28.46
2022-07-25T22:26:45.782Z,28.60
2022-07-25T22:29:13.353Z,28.55
2022-07-25T22:31:40.933Z,27.99
2022-07-25T22:34:08.878Z,28.60
2022-07-25T22:36:36.219Z,28.29
2022-07-25T22:39:03.865Z,28.19
2022-07-25T22:41:31.244Z,28.86
2022-07-25T22:44:00.018Z,28.52
2022-07-25T22:46:31.274Z,28.32
2022-07-25T22:48:59.347Z,28.80
2022-07-25T22:51:27.431Z,28.34
2022-07-25T22:53:55.364Z,28.57
2022-07-25T22:56:22.680Z,28.65
2022-07-25T22:58:50.204Z,28.50
2022-07-25T23:01:18.262Z,28.93
2022-07-25T23:03:46.042Z,28.84
2022-07-25T23:06:13.394Z,28.40
2022-07-25T23:08:40.880Z,28.97
2022-07-25T23:11:08.365Z,28.75
2022-07-25T23:13:36.043Z,28.78
2022-07-25T23:16:04.116Z,29.12
2022-07-25T23:18:32.147Z,28.94
2022-07-25T23:20:59.762Z,28.26
2022-07-25T23:23:29.235Z,28.77
2022-07-25T23:25:56.690Z,28.92
2022-07-25T23:28:23.997Z,29.06
2022-07-25T23:30:51.448Z,28.75
2022-07-25T23:33:19.088Z,28.71
2022-07-25T23:35:53.273Z,28.64
2022-07-25T23:38:20.848Z,28.52
2022-07-25T23:40:48.325Z,28.73
2022-07-25T23:43:24.719Z,29.29
2022-07-25T23:46:03.104Z,29.50
2022-07-25T23:48:30.571Z,28.44
2022-07-25T23:50:57.974Z,28.97
2022-07-25T23:53:25.296Z,29.03
2022-07-25T23:55:53.047Z,28.73
2022-07-25T23:58:20.312Z,29.10
